sensor_id;sensor_type;location;lat;lon;timestamp;temperature;humidity
19389;DHT22;9830;41.876;23.474;2022-08-18T00:00:05;15.10;99.90
19389;DHT22;9830;41.876;23.474;2022-08-18T00:02:33;14.90;99.90
19389;DHT22;9830;41.876;23.474;2022-08-18T00:04:59;14.60;99.90
19389;DHT22;9830;41.876;23.474;2022-08-18T00:07:28;14.60;99.90
19389;DHT22;9830;41.876;23.474;2022-08-18T00:09:55;14.70;99.90
19389;DHT22;9830;41.876;23.474;2022-08-18T00:12:29;14.70;99.90
19389;DHT22;9830;41.876;23.474;2022-08-18T00:14:56;14.70;99.90
19389;DHT22;9830;41.876;23.474;2022-08-18T00:17:22;14.80;99.90
19389;DHT22;9830;41.876;23.474;2022-08-18T00:19:48;14.70;99.90
19389;DHT22;9830;41.876;23.474;2022-08-18T00:22:17;14.70;99.90
19389;DHT22;9830;41.876;23.474;2022-08-18T00:24:45;14.60;99.90
19389;DHT22;9830;41.876;23.474;2022-08-18T00:27:10;14.60;99.90
19389;DHT22;9830;41.876;23.474;2022-08-18T00:29:36;14.70;99.90
19389;DHT22;9830;41.876;23.474;2022-08-18T00:32:16;14.60;99.90
19389;DHT22;9830;41.876;23.474;2022-08-18T00:34:42;14.40;99.90
19389;DHT22;9830;41.876;23.474;2022-08-18T00:37:08;14.40;99.90
19389;DHT22;9830;41.876;23.474;2022-08-18T00:39:34;14.40;99.90
19389;DHT22;9830;41.876;23.474;2022-08-18T00:42:12;14.30;99.90
19389;DHT22;9830;41.876;23.474;2022-08-18T00:44:37;14.30;99.90
19389;DHT22;9830;41.876;23.474;2022-08-18T00:47:03;14.30;99.90
19389;DHT22;9830;41.876;23.474;2022-08-18T00:49:29;14.30;99.90
19389;DHT22;9830;41.876;23.474;2022-08-18T00:51:56;14.40;99.90
19389;DHT22;9830;41.876;23.474;2022-08-18T00:54:28;14.30;99.90
19389;DHT22;9830;41.876;23.474;2022-08-18T00:57:00;14.00;99.90
19389;DHT22;9830;41.876;23.474;2022-08-18T01:02:06;13.70;99.90
19389;DHT22;9830;41.876;23.474;2022-08-18T01:04:46;13.80;99.90
19389;DHT22;9830;41.876;23.474;2022-08-18T01:07:17;13.90;99.90
19389;DHT22;9830;41.876;23.474;2022-08-18T01:09:49;13.90;99.90
19389;DHT22;9830;41.876;23.474;2022-08-18T01:12:17;13.90;99.90
19389;DHT22;9830;41.876;23.474;2022-08-18T01:14:43;13.80;99.90
19389;DHT22;9830;41.876;23.474;2022-08-18T01:17:10;13.80;99.90
19389;DHT22;9830;41.876;23.474;2022-08-18T01:19:54;13.80;99.90
19389;DHT22;9830;41.876;23.474;2022-08-18T01:25:19;13.90;99.90
19389;DHT22;9830;41.876;23.474;2022-08-18T01:28:04;13.90;99.90
19389;DHT22;9830;41.876;23.474;2022-08-18T01:30:43;13.80;99.90
19389;DHT22;9830;41.876;23.474;2022-08-18T01:33:09;13.70;99.90
19389;DHT22;9830;41.876;23.474;2022-08-18T01:35:39;13.40;99.90
19389;DHT22;9830;41.876;23.474;2022-08-18T01:38:07;13.40;99.90
19389;DHT22;9830;41.876;23.474;2022-08-18T01:40:33;13.30;99.90
19389;DHT22;9830;41.876;23.474;2022-08-18T01:42:59;13.20;99.90
19389;DHT22;9830;41.876;23.474;2022-08-18T01:45:28;13.20;99.90
19389;DHT22;9830;41.876;23.474;2022-08-18T01:47:53;13.30;99.90
19389;DHT22;9830;41.876;23.474;2022-08-18T01:50:20;13.40;99.90
19389;DHT22;9830;41.876;23.474;2022-08-18T01:52:46;13.40;99.90
19389;DHT22;9830;41.876;23.474;2022-08-18T01:55:12;13.40;99.90
19389;DHT22;9830;41.876;23.474;2022-08-18T01:57:39;13.40;99.90
19389;DHT22;9830;41.876;23.474;2022-08-18T02:00:08;13.30;99.90
19389;DHT22;9830;41.876;23.474;2022-08-18T02:02:34;13.30;99.90
19389;DHT22;9830;41.876;23.474;2022-08-18T02:05:06;13.30;99.90
19389;DHT22;9830;41.876;23.474;2022-08-18T02:07:35;13.20;99.90
19389;DHT22;9830;41.876;23.474;2022-08-18T02:10:01;13.20;99.90
19389;DHT22;9830;41.876;23.474;2022-08-18T02:12:27;13.30;99.90
19389;DHT22;9830;41.876;23.474;2022-08-18T02:14:52;13.30;99.90
19389;DHT22;9830;41.876;23.474;2022-08-18T02:17:18;13.20;99.90
19389;DHT22;9830;41.876;23.474;2022-08-18T02:19:45;13.30;99.90
19389;DHT22;9830;41.876;23.474;2022-08-18T02:22:14;13.00;99.90
19389;DHT22;9830;41.876;23.474;2022-08-18T02:24:40;12.80;99.90
19389;DHT22;9830;41.876;23.474;2022-08-18T02:27:07;12.70;99.90
19389;DHT22;9830;41.876;23.474;2022-08-18T02:29:33;12.80;99.90
19389;DHT22;9830;41.876;23.474;2022-08-18T02:31:59;12.80;99.90
19389;DHT22;9830;41.876;23.474;2022-08-18T02:34:25;12.80;99.90
19389;DHT22;9830;41.876;23.474;2022-08-18T02:36:51;12.80;99.90
19389;DHT22;9830;41.876;23.474;2022-08-18T02:39:17;12.80;99.90
19389;DHT22;9830;41.876;23.474;2022-08-18T02:41:42;12.80;99.90
19389;DHT22;9830;41.876;23.474;2022-08-18T02:44:08;12.70;99.90
19389;DHT22;9830;41.876;23.474;2022-08-18T02:46:35;12.70;99.90
19389;DHT22;9830;41.876;23.474;2022-08-18T02:49:02;12.80;99.90
19389;DHT22;9830;41.876;23.474;2022-08-18T02:51:28;12.80;99.90
19389;DHT22;9830;41.876;23.474;2022-08-18T02:53:54;12.80;99.90
19389;DHT22;9830;41.876;23.474;2022-08-18T02:56:28;12.80;99.90
19389;DHT22;9830;41.876;23.474;2022-08-18T02:59:00;12.80;99.90
19389;DHT22;9830;41.876;23.474;2022-08-18T03:01:29;12.50;99.90
19389;DHT22;9830;41.876;23.474;2022-08-18T03:03:57;12.50;99.90
19389;DHT22;9830;41.876;23.474;2022-08-18T03:06:24;12.30;99.90
19389;DHT22;9830;41.876;23.474;2022-08-18T03:08:50;12.30;99.90
19389;DHT22;9830;41.876;23.474;2022-08-18T03:11:21;12.40;99.90
19389;DHT22;9830;41.876;23.474;2022-08-18T03:13:48;12.50;99.90
19389;DHT22;9830;41.876;23.474;2022-08-18T03:16:14;12.50;99.90
19389;DHT22;9830;41.876;23.474;2022-08-18T03:18:41;12.60;99.90
19389;DHT22;9830;41.876;23.474;2022-08-18T03:21:15;12.50;99.90
19389;DHT22;9830;41.876;23.474;2022-08-18T03:23:41;12.60;99.90
19389;DHT22;9830;41.876;23.474;2022-08-18T03:26:10;12.60;99.90
19389;DHT22;9830;41.876;23.474;2022-08-18T03:28:37;12.50;99.90
19389;DHT22;9830;41.876;23.474;2022-08-18T03:31:03;12.50;99.90
19389;DHT22;9830;41.876;23.474;2022-08-18T03:33:29;12.60;99.90
19389;DHT22;9830;41.876;23.474;2022-08-18T03:35:55;12.70;99.90
19389;DHT22;9830;41.876;23.474;2022-08-18T03:38:20;12.70;99.90
19389;DHT22;9830;41.876;23.474;2022-08-18T03:40:50;12.60;99.90
19389;DHT22;9830;41.876;23.474;2022-08-18T03:43:16;12.50;99.90
19389;DHT22;9830;41.876;23.474;2022-08-18T03:45:42;12.40;99.90
19389;DHT22;9830;41.876;23.474;2022-08-18T03:48:08;12.50;99.90
19389;DHT22;9830;41.876;23.474;2022-08-18T03:50:35;12.50;99.90
19389;DHT22;9830;41.876;23.474;2022-08-18T03:53:02;12.50;99.90
19389;DHT22;9830;41.876;23.474;2022-08-18T03:55:29;12.40;99.90
19389;DHT22;9830;41.876;23.474;2022-08-18T03:58:01;12.30;99.90
19389;DHT22;9830;41.876;23.474;2022-08-18T04:00:31;12.30;99.90
19389;DHT22;9830;41.876;23.474;2022-08-18T04:03:01;12.40;99.90
19389;DHT22;9830;41.876;23.474;2022-08-18T04:05:27;12.70;99.90
19389;DHT22;9830;41.876;23.474;2022-08-18T04:07:54;13.20;99.90
19389;DHT22;9830;41.876;23.474;2022-08-18T04:10:22;13.70;99.90
19389;DHT22;9830;41.876;23.474;2022-08-18T04:12:48;14.40;99.90
19389;DHT22;9830;41.876;23.474;2022-08-18T04:15:13;15.40;99.90
19389;DHT22;9830;41.876;23.474;2022-08-18T04:17:39;15.60;99.90
19389;DHT22;9830;41.876;23.474;2022-08-18T04:20:05;16.20;99.20
19389;DHT22;9830;41.876;23.474;2022-08-18T04:22:31;16.50;97.70
19389;DHT22;9830;41.876;23.474;2022-08-18T04:25:00;17.00;97.50
19389;DHT22;9830;41.876;23.474;2022-08-18T04:27:26;17.40;95.80
19389;DHT22;9830;41.876;23.474;2022-08-18T04:29:53;17.50;94.70
19389;DHT22;9830;41.876;23.474;2022-08-18T04:32:21;17.30;95.20
19389;DHT22;9830;41.876;23.474;2022-08-18T04:34:48;17.70;94.70
19389;DHT22;9830;41.876;23.474;2022-08-18T04:37:14;18.20;93.00
19389;DHT22;9830;41.876;23.474;2022-08-18T04:39:41;18.50;93.30
19389;DHT22;9830;41.876;23.474;2022-08-18T04:42:07;19.30;91.20
19389;DHT22;9830;41.876;23.474;2022-08-18T04:44:34;20.70;84.10
19389;DHT22;9830;41.876;23.474;2022-08-18T04:47:03;21.20;78.90
19389;DHT22;9830;41.876;23.474;2022-08-18T04:49:29;21.80;76.60
19389;DHT22;9830;41.876;23.474;2022-08-18T04:51:56;22.20;72.90
19389;DHT22;9830;41.876;23.474;2022-08-18T04:54:40;21.90;72.50
19389;DHT22;9830;41.876;23.474;2022-08-18T04:57:15;21.30;77.40
19389;DHT22;9830;41.876;23.474;2022-08-18T04:59:46;21.60;76.80
19389;DHT22;9830;41.876;23.474;2022-08-18T05:02:13;22.50;73.50
19389;DHT22;9830;41.876;23.474;2022-08-18T05:04:41;22.00;74.30
19389;DHT22;9830;41.876;23.474;2022-08-18T05:07:09;23.40;69.90
19389;DHT22;9830;41.876;23.474;2022-08-18T05:09:38;24.10;65.20
19389;DHT22;9830;41.876;23.474;2022-08-18T05:12:07;23.70;67.20
19389;DHT22;9830;41.876;23.474;2022-08-18T05:14:33;24.10;64.80
19389;DHT22;9830;41.876;23.474;2022-08-18T05:17:01;24.10;66.50
19389;DHT22;9830;41.876;23.474;2022-08-18T05:19:28;24.70;64.20
19389;DHT22;9830;41.876;23.474;2022-08-18T05:21:58;25.40;61.20
19389;DHT22;9830;41.876;23.474;2022-08-18T05:24:25;25.70;60.00
19389;DHT22;9830;41.876;23.474;2022-08-18T05:26:53;26.00;58.70
19389;DHT22;9830;41.876;23.474;2022-08-18T05:29:20;26.10;59.30
19389;DHT22;9830;41.876;23.474;2022-08-18T05:31:51;26.10;59.20
19389;DHT22;9830;41.876;23.474;2022-08-18T05:34:19;26.00;59.40
19389;DHT22;9830;41.876;23.474;2022-08-18T05:39:21;26.00;59.60
19389;DHT22;9830;41.876;23.474;2022-08-18T05:41:57;26.00;59.40
19389;DHT22;9830;41.876;23.474;2022-08-18T05:44:32;26.30;59.00
19389;DHT22;9830;41.876;23.474;2022-08-18T05:47:06;26.50;58.40
19389;DHT22;9830;41.876;23.474;2022-08-18T05:49:33;27.60;56.60
19389;DHT22;9830;41.876;23.474;2022-08-18T05:52:03;28.20;53.40
19389;DHT22;9830;41.876;23.474;2022-08-18T05:54:41;28.50;52.80
19389;DHT22;9830;41.876;23.474;2022-08-18T05:57:30;27.80;55.00
19389;DHT22;9830;41.876;23.474;2022-08-18T05:59:58;28.20;54.30
19389;DHT22;9830;41.876;23.474;2022-08-18T06:05:20;28.50;52.00
19389;DHT22;9830;41.876;23.474;2022-08-18T06:07:56;29.30;51.20
19389;DHT22;9830;41.876;23.474;2022-08-18T06:10:23;30.00;49.70
19389;DHT22;9830;41.876;23.474;2022-08-18T06:12:53;30.40;49.80
19389;DHT22;9830;41.876;23.474;2022-08-18T06:23:49;31.10;45.80
19389;DHT22;9830;41.876;23.474;2022-08-18T06:26:27;32.30;44.90
19389;DHT22;9830;41.876;23.474;2022-08-18T06:37:41;32.30;43.20
19389;DHT22;9830;41.876;23.474;2022-08-18T06:40:27;32.10;42.60
19389;DHT22;9830;41.876;23.474;2022-08-18T06:42:53;32.20;43.00
19389;DHT22;9830;41.876;23.474;2022-08-18T06:45:27;32.70;42.40
19389;DHT22;9830;41.876;23.474;2022-08-18T06:50:56;32.30;42.70
19389;DHT22;9830;41.876;23.474;2022-08-18T07:01:42;33.50;40.40
19389;DHT22;9830;41.876;23.474;2022-08-18T07:04:08;33.80;39.50
19389;DHT22;9830;41.876;23.474;2022-08-18T07:06:34;35.10;38.30
19389;DHT22;9830;41.876;23.474;2022-08-18T07:09:24;33.30;40.70
19389;DHT22;9830;41.876;23.474;2022-08-18T07:12:00;34.30;40.20
19389;DHT22;9830;41.876;23.474;2022-08-18T07:14:26;33.20;41.10
19389;DHT22;9830;41.876;23.474;2022-08-18T07:17:07;35.20;37.90
19389;DHT22;9830;41.876;23.474;2022-08-18T07:19:33;35.40;36.50
19389;DHT22;9830;41.876;23.474;2022-08-18T07:22:07;34.10;38.70
19389;DHT22;9830;41.876;23.474;2022-08-18T07:24:40;35.70;37.40
19389;DHT22;9830;41.876;23.474;2022-08-18T07:27:10;35.20;37.40
19389;DHT22;9830;41.876;23.474;2022-08-18T07:30:24;35.20;37.40
19389;DHT22;9830;41.876;23.474;2022-08-18T07:32:46;37.30;34.40
19389;DHT22;9830;41.876;23.474;2022-08-18T07:35:17;36.30;35.00
19389;DHT22;9830;41.876;23.474;2022-08-18T07:40:46;36.60;34.00
19389;DHT22;9830;41.876;23.474;2022-08-18T07:43:29;37.40;33.60
19389;DHT22;9830;41.876;23.474;2022-08-18T07:46:12;38.40;33.20
19389;DHT22;9830;41.876;23.474;2022-08-18T07:48:40;38.10;32.10
19389;DHT22;9830;41.876;23.474;2022-08-18T07:51:32;36.10;34.80
19389;DHT22;9830;41.876;23.474;2022-08-18T07:54:13;36.50;33.90
19389;DHT22;9830;41.876;23.474;2022-08-18T07:59:28;37.10;34.30
19389;DHT22;9830;41.876;23.474;2022-08-18T08:05:06;36.90;34.10
19389;DHT22;9830;41.876;23.474;2022-08-18T08:13:20;37.80;32.40
19389;DHT22;9830;41.876;23.474;2022-08-18T08:16:56;38.20;32.30
19389;DHT22;9830;41.876;23.474;2022-08-18T08:19:14;38.40;32.50
19389;DHT22;9830;41.876;23.474;2022-08-18T08:22:10;38.10;33.40
19389;DHT22;9830;41.876;23.474;2022-08-18T08:27:19;38.90;30.50
19389;DHT22;9830;41.876;23.474;2022-08-18T08:30:20;40.30;29.60
19389;DHT22;9830;41.876;23.474;2022-08-18T08:33:34;41.50;28.60
19389;DHT22;9830;41.876;23.474;2022-08-18T08:36:20;41.70;28.60
19389;DHT22;9830;41.876;23.474;2022-08-18T08:38:57;40.70;27.80
19389;DHT22;9830;41.876;23.474;2022-08-18T08:44:06;41.60;27.10
19389;DHT22;9830;41.876;23.474;2022-08-18T08:51:48;41.50;27.30
19389;DHT22;9830;41.876;23.474;2022-08-18T08:57:02;39.70;28.90
19389;DHT22;9830;41.876;23.474;2022-08-18T08:59:29;40.20;27.80
19389;DHT22;9830;41.876;23.474;2022-08-18T09:08:10;39.50;29.10
19389;DHT22;9830;41.876;23.474;2022-08-18T09:16:57;40.60;27.00
19389;DHT22;9830;41.876;23.474;2022-08-18T09:24:55;40.40;28.50
19389;DHT22;9830;41.876;23.474;2022-08-18T09:27:43;39.80;27.80
19389;DHT22;9830;41.876;23.474;2022-08-18T09:33:31;40.10;28.70
19389;DHT22;9830;41.876;23.474;2022-08-18T09:36:02;40.40;28.60
19389;DHT22;9830;41.876;23.474;2022-08-18T09:38:33;40.50;28.60
19389;DHT22;9830;41.876;23.474;2022-08-18T09:41:23;40.20;28.40
19389;DHT22;9830;41.876;23.474;2022-08-18T09:44:08;40.60;28.40
19389;DHT22;9830;41.876;23.474;2022-08-18T09:54:22;39.00;29.60
19389;DHT22;9830;41.876;23.474;2022-08-18T10:01:59;36.60;31.70
19389;DHT22;9830;41.876;23.474;2022-08-18T10:04:29;36.60;33.90
19389;DHT22;9830;41.876;23.474;2022-08-18T10:07:28;36.40;32.00
19389;DHT22;9830;41.876;23.474;2022-08-18T10:12:43;35.70;33.50
19389;DHT22;9830;41.876;23.474;2022-08-18T10:21:20;35.80;32.00
19389;DHT22;9830;41.876;23.474;2022-08-18T10:31:24;35.60;32.90
19389;DHT22;9830;41.876;23.474;2022-08-18T10:34:09;35.90;33.20
19389;DHT22;9830;41.876;23.474;2022-08-18T10:36:50;36.00;34.00
19389;DHT22;9830;41.876;23.474;2022-08-18T10:39:21;35.90;32.50
19389;DHT22;9830;41.876;23.474;2022-08-18T10:42:01;35.70;32.60
19389;DHT22;9830;41.876;23.474;2022-08-18T10:44:30;35.70;34.40
19389;DHT22;9830;41.876;23.474;2022-08-18T10:46:58;35.90;34.80
19389;DHT22;9830;41.876;23.474;2022-08-18T10:49:27;35.50;34.70
19389;DHT22;9830;41.876;23.474;2022-08-18T10:52:11;35.40;35.60
19389;DHT22;9830;41.876;23.474;2022-08-18T11:00:12;35.00;36.40
19389;DHT22;9830;41.876;23.474;2022-08-18T11:05:44;34.90;36.00
19389;DHT22;9830;41.876;23.474;2022-08-18T11:08:14;34.80;36.50
19389;DHT22;9830;41.876;23.474;2022-08-18T11:10:47;34.90;35.80
19389;DHT22;9830;41.876;23.474;2022-08-18T11:16:05;34.80;34.20
19389;DHT22;9830;41.876;23.474;2022-08-18T11:18:46;34.90;35.70
19389;DHT22;9830;41.876;23.474;2022-08-18T11:29:23;34.60;35.70
19389;DHT22;9830;41.876;23.474;2022-08-18T11:31:52;34.90;34.90
19389;DHT22;9830;41.876;23.474;2022-08-18T11:34:30;34.90;34.80
19389;DHT22;9830;41.876;23.474;2022-08-18T11:37:03;34.70;35.40
19389;DHT22;9830;41.876;23.474;2022-08-18T11:39:30;34.70;34.20
19389;DHT22;9830;41.876;23.474;2022-08-18T11:41:56;34.70;33.90
19389;DHT22;9830;41.876;23.474;2022-08-18T11:44:28;34.90;34.60
19389;DHT22;9830;41.876;23.474;2022-08-18T11:47:16;35.20;34.80
19389;DHT22;9830;41.876;23.474;2022-08-18T11:49:53;35.20;35.10
19389;DHT22;9830;41.876;23.474;2022-08-18T11:52:25;34.90;33.70
19389;DHT22;9830;41.876;23.474;2022-08-18T11:54:51;34.90;33.20
19389;DHT22;9830;41.876;23.474;2022-08-18T11:57:40;34.90;33.60
19389;DHT22;9830;41.876;23.474;2022-08-18T12:03:10;35.10;35.00
19389;DHT22;9830;41.876;23.474;2022-08-18T12:05:51;34.90;34.60
19389;DHT22;9830;41.876;23.474;2022-08-18T12:11:03;34.80;33.10
19389;DHT22;9830;41.876;23.474;2022-08-18T12:13:30;34.90;33.90
19389;DHT22;9830;41.876;23.474;2022-08-18T12:16:12;34.90;34.10
19389;DHT22;9830;41.876;23.474;2022-08-18T12:18:38;34.80;32.80
19389;DHT22;9830;41.876;23.474;2022-08-18T12:21:05;34.80;33.10
19389;DHT22;9830;41.876;23.474;2022-08-18T12:23:32;34.80;33.40
19389;DHT22;9830;41.876;23.474;2022-08-18T12:25:58;34.80;32.40
19389;DHT22;9830;41.876;23.474;2022-08-18T12:28:24;34.60;33.20
19389;DHT22;9830;41.876;23.474;2022-08-18T12:30:52;34.50;32.90
19389;DHT22;9830;41.876;23.474;2022-08-18T12:33:18;34.50;33.00
19389;DHT22;9830;41.876;23.474;2022-08-18T12:35:44;34.40;34.30
19389;DHT22;9830;41.876;23.474;2022-08-18T12:38:11;34.40;33.80
19389;DHT22;9830;41.876;23.474;2022-08-18T12:40:37;34.40;34.20
19389;DHT22;9830;41.876;23.474;2022-08-18T12:43:03;34.20;33.40
19389;DHT22;9830;41.876;23.474;2022-08-18T12:45:29;34.30;34.20
19389;DHT22;9830;41.876;23.474;2022-08-18T12:47:58;34.20;36.10
19389;DHT22;9830;41.876;23.474;2022-08-18T12:50:26;34.30;35.50
19389;DHT22;9830;41.876;23.474;2022-08-18T12:52:52;34.30;35.70
19389;DHT22;9830;41.876;23.474;2022-08-18T12:55:18;34.50;35.90
19389;DHT22;9830;41.876;23.474;2022-08-18T12:57:43;34.50;35.20
19389;DHT22;9830;41.876;23.474;2022-08-18T13:00:10;34.60;35.20
19389;DHT22;9830;41.876;23.474;2022-08-18T13:02:36;34.70;34.50
19389;DHT22;9830;41.876;23.474;2022-08-18T13:05:01;34.80;36.00
19389;DHT22;9830;41.876;23.474;2022-08-18T13:07:27;34.60;33.80
19389;DHT22;9830;41.876;23.474;2022-08-18T13:09:53;34.60;35.60
19389;DHT22;9830;41.876;23.474;2022-08-18T13:12:19;34.50;34.30
19389;DHT22;9830;41.876;23.474;2022-08-18T13:14:46;34.40;34.40
19389;DHT22;9830;41.876;23.474;2022-08-18T13:17:12;34.30;35.80
19389;DHT22;9830;41.876;23.474;2022-08-18T13:19:38;34.20;35.10
19389;DHT22;9830;41.876;23.474;2022-08-18T13:22:04;34.20;35.00
19389;DHT22;9830;41.876;23.474;2022-08-18T13:24:29;34.20;33.70
19389;DHT22;9830;41.876;23.474;2022-08-18T13:26:55;33.90;34.80
19389;DHT22;9830;41.876;23.474;2022-08-18T13:29:21;34.00;34.90
19389;DHT22;9830;41.876;23.474;2022-08-18T13:31:47;33.90;35.20
19389;DHT22;9830;41.876;23.474;2022-08-18T13:34:13;33.90;36.30
19389;DHT22;9830;41.876;23.474;2022-08-18T13:36:39;33.60;36.10
19389;DHT22;9830;41.876;23.474;2022-08-18T13:39:18;33.50;36.00
19389;DHT22;9830;41.876;23.474;2022-08-18T13:41:45;33.50;36.40
19389;DHT22;9830;41.876;23.474;2022-08-18T13:44:13;33.50;37.50
19389;DHT22;9830;41.876;23.474;2022-08-18T13:46:40;33.40;37.00
19389;DHT22;9830;41.876;23.474;2022-08-18T13:49:18;33.40;36.00
19389;DHT22;9830;41.876;23.474;2022-08-18T13:51:45;33.10;36.90
19389;DHT22;9830;41.876;23.474;2022-08-18T13:54:17;33.20;36.90
19389;DHT22;9830;41.876;23.474;2022-08-18T13:56:44;33.10;37.60
19389;DHT22;9830;41.876;23.474;2022-08-18T13:59:10;32.80;36.30
19389;DHT22;9830;41.876;23.474;2022-08-18T14:01:37;32.90;37.70
19389;DHT22;9830;41.876;23.474;2022-08-18T14:04:05;32.90;37.80
19389;DHT22;9830;41.876;23.474;2022-08-18T14:06:31;32.90;38.20
19389;DHT22;9830;41.876;23.474;2022-08-18T14:08:56;32.80;37.50
19389;DHT22;9830;41.876;23.474;2022-08-18T14:11:27;32.70;37.50
19389;DHT22;9830;41.876;23.474;2022-08-18T14:13:54;32.50;37.20
19389;DHT22;9830;41.876;23.474;2022-08-18T14:16:23;32.40;37.80
19389;DHT22;9830;41.876;23.474;2022-08-18T14:18:49;32.30;37.60
19389;DHT22;9830;41.876;23.474;2022-08-18T14:21:38;32.10;37.60
19389;DHT22;9830;41.876;23.474;2022-08-18T14:24:23;31.90;38.00
19389;DHT22;9830;41.876;23.474;2022-08-18T14:27:07;31.90;39.00
19389;DHT22;9830;41.876;23.474;2022-08-18T14:29:33;31.80;39.00
19389;DHT22;9830;41.876;23.474;2022-08-18T14:31:59;31.80;37.90
19389;DHT22;9830;41.876;23.474;2022-08-18T14:34:25;31.80;38.10
19389;DHT22;9830;41.876;23.474;2022-08-18T14:36:51;31.70;39.10
19389;DHT22;9830;41.876;23.474;2022-08-18T14:39:17;31.70;38.70
19389;DHT22;9830;41.876;23.474;2022-08-18T14:41:42;31.60;38.70
19389;DHT22;9830;41.876;23.474;2022-08-18T14:44:08;31.60;38.90
19389;DHT22;9830;41.876;23.474;2022-08-18T14:46:37;31.50;38.80
19389;DHT22;9830;41.876;23.474;2022-08-18T14:49:03;31.40;39.80
19389;DHT22;9830;41.876;23.474;2022-08-18T14:51:30;31.30;38.60
19389;DHT22;9830;41.876;23.474;2022-08-18T14:53:55;31.30;39.30
19389;DHT22;9830;41.876;23.474;2022-08-18T14:56:21;31.20;39.10
19389;DHT22;9830;41.876;23.474;2022-08-18T14:58:47;31.20;39.00
19389;DHT22;9830;41.876;23.474;2022-08-18T15:01:13;31.00;38.60
19389;DHT22;9830;41.876;23.474;2022-08-18T15:03:40;31.00;39.20
19389;DHT22;9830;41.876;23.474;2022-08-18T15:06:07;31.00;39.30
19389;DHT22;9830;41.876;23.474;2022-08-18T15:08:34;31.00;39.60
19389;DHT22;9830;41.876;23.474;2022-08-18T15:11:00;30.90;39.00
19389;DHT22;9830;41.876;23.474;2022-08-18T15:13:27;30.90;39.50
19389;DHT22;9830;41.876;23.474;2022-08-18T15:15:53;30.90;39.00
19389;DHT22;9830;41.876;23.474;2022-08-18T15:18:20;30.80;39.20
19389;DHT22;9830;41.876;23.474;2022-08-18T15:20:45;30.80;39.30
19389;DHT22;9830;41.876;23.474;2022-08-18T15:23:30;30.60;38.90
19389;DHT22;9830;41.876;23.474;2022-08-18T15:26:18;30.60;39.50
19389;DHT22;9830;41.876;23.474;2022-08-18T15:28:46;30.50;39.90
19389;DHT22;9830;41.876;23.474;2022-08-18T15:31:12;30.40;39.40
19389;DHT22;9830;41.876;23.474;2022-08-18T15:33:37;30.40;40.20
19389;DHT22;9830;41.876;23.474;2022-08-18T15:36:03;30.40;40.40
19389;DHT22;9830;41.876;23.474;2022-08-18T15:38:30;30.40;40.30
19389;DHT22;9830;41.876;23.474;2022-08-18T15:40:58;30.20;40.10
19389;DHT22;9830;41.876;23.474;2022-08-18T15:43:25;30.20;41.00
19389;DHT22;9830;41.876;23.474;2022-08-18T15:45:52;30.10;41.60
19389;DHT22;9830;41.876;23.474;2022-08-18T15:48:19;30.10;40.40
19389;DHT22;9830;41.876;23.474;2022-08-18T15:50:46;30.00;40.60
19389;DHT22;9830;41.876;23.474;2022-08-18T15:53:15;30.00;41.10
19389;DHT22;9830;41.876;23.474;2022-08-18T15:55:41;29.90;41.40
19389;DHT22;9830;41.876;23.474;2022-08-18T15:58:09;29.80;41.10
19389;DHT22;9830;41.876;23.474;2022-08-18T16:00:35;29.70;40.90
19389;DHT22;9830;41.876;23.474;2022-08-18T16:03:04;29.70;41.00
19389;DHT22;9830;41.876;23.474;2022-08-18T16:05:33;29.60;41.20
19389;DHT22;9830;41.876;23.474;2022-08-18T16:08:02;29.60;41.10
19389;DHT22;9830;41.876;23.474;2022-08-18T16:10:32;29.50;42.00
19389;DHT22;9830;41.876;23.474;2022-08-18T16:12:58;29.30;41.90
19389;DHT22;9830;41.876;23.474;2022-08-18T16:15:25;29.20;42.10
19389;DHT22;9830;41.876;23.474;2022-08-18T16:17:52;29.10;42.40
19389;DHT22;9830;41.876;23.474;2022-08-18T16:20:20;28.90;43.00
19389;DHT22;9830;41.876;23.474;2022-08-18T16:22:48;28.80;43.20
19389;DHT22;9830;41.876;23.474;2022-08-18T16:25:14;28.70;42.70
19389;DHT22;9830;41.876;23.474;2022-08-18T16:27:41;28.60;42.80
19389;DHT22;9830;41.876;23.474;2022-08-18T16:30:13;28.50;43.10
19389;DHT22;9830;41.876;23.474;2022-08-18T16:32:39;28.40;43.00
19389;DHT22;9830;41.876;23.474;2022-08-18T16:35:06;28.40;43.00
19389;DHT22;9830;41.876;23.474;2022-08-18T16:37:32;28.20;43.10
19389;DHT22;9830;41.876;23.474;2022-08-18T16:39:58;28.10;43.10
19389;DHT22;9830;41.876;23.474;2022-08-18T16:42:23;28.10;43.20
19389;DHT22;9830;41.876;23.474;2022-08-18T16:44:49;27.90;43.20
19389;DHT22;9830;41.876;23.474;2022-08-18T16:47:15;27.90;43.50
19389;DHT22;9830;41.876;23.474;2022-08-18T16:49:44;27.70;43.40
19389;DHT22;9830;41.876;23.474;2022-08-18T16:52:13;27.60;43.80
19389;DHT22;9830;41.876;23.474;2022-08-18T16:54:40;27.50;44.30
19389;DHT22;9830;41.876;23.474;2022-08-18T16:57:06;27.30;44.30
19389;DHT22;9830;41.876;23.474;2022-08-18T16:59:32;27.20;44.70
19389;DHT22;9830;41.876;23.474;2022-08-18T17:02:16;27.00;45.00
19389;DHT22;9830;41.876;23.474;2022-08-18T17:05:01;26.80;45.30
19389;DHT22;9830;41.876;23.474;2022-08-18T17:07:29;26.70;45.40
19389;DHT22;9830;41.876;23.474;2022-08-18T17:09:56;26.60;45.70
19389;DHT22;9830;41.876;23.474;2022-08-18T17:12:22;26.50;45.70
19389;DHT22;9830;41.876;23.474;2022-08-18T17:14:49;26.40;45.70
19389;DHT22;9830;41.876;23.474;2022-08-18T17:17:14;26.30;45.70
19389;DHT22;9830;41.876;23.474;2022-08-18T17:19:44;26.20;45.90
19389;DHT22;9830;41.876;23.474;2022-08-18T17:22:10;26.10;46.40
19389;DHT22;9830;41.876;23.474;2022-08-18T17:24:37;26.00;47.10
19389;DHT22;9830;41.876;23.474;2022-08-18T17:27:19;25.90;46.60
19389;DHT22;9830;41.876;23.474;2022-08-18T17:30:05;25.90;47.50
19389;DHT22;9830;41.876;23.474;2022-08-18T17:35:05;25.50;48.20
19389;DHT22;9830;41.876;23.474;2022-08-18T17:37:33;25.40;47.50
19389;DHT22;9830;41.876;23.474;2022-08-18T17:40:07;25.50;46.60
19389;DHT22;9830;41.876;23.474;2022-08-18T17:42:35;25.60;46.10
19389;DHT22;9830;41.876;23.474;2022-08-18T17:45:08;25.70;46.50
19389;DHT22;9830;41.876;23.474;2022-08-18T17:53:15;25.80;45.80
19389;DHT22;9830;41.876;23.474;2022-08-18T17:55:48;25.80;45.60
19389;DHT22;9830;41.876;23.474;2022-08-18T17:58:26;25.70;46.60
19389;DHT22;9830;41.876;23.474;2022-08-18T18:00:54;25.50;47.60
19389;DHT22;9830;41.876;23.474;2022-08-18T18:03:19;25.30;47.70
19389;DHT22;9830;41.876;23.474;2022-08-18T18:05:50;25.30;46.90
19389;DHT22;9830;41.876;23.474;2022-08-18T18:08:17;25.40;47.00
19389;DHT22;9830;41.876;23.474;2022-08-18T18:10:48;25.30;47.20
19389;DHT22;9830;41.876;23.474;2022-08-18T18:15:48;25.20;47.70
19389;DHT22;9830;41.876;23.474;2022-08-18T18:18:34;25.10;47.40
19389;DHT22;9830;41.876;23.474;2022-08-18T18:21:04;25.10;47.70